createdAt,value
2022-08-23T00:02:27.207Z,15.80
2022-08-23T00:05:07.995Z,15.80
2022-08-23T00:07:43.852Z,15.80
2022-08-23T00:10:14.130Z,15.80
2022-08-23T00:12:42.301Z,15.70
2022-08-23T00:17:39.703Z,15.70
2022-08-23T00:20:09.465Z,15.70
2022-08-23T00:22:38.367Z,15.60
2022-08-23T00:25:07.788Z,15.60
2022-08-23T00:27:35.413Z,15.60
2022-08-23T00:30:05.041Z,15.50
2022-08-23T00:32:35.367Z,15.50
2022-08-23T00:35:03.365Z,15.50
2022-08-23T00:37:34.498Z,15.50
2022-08-23T00:42:48.085Z,15.40
2022-08-23T00:45:38.151Z,15.40
2022-08-23T00:48:07.284Z,15.40
2022-08-23T00:50:44.745Z,15.40
2022-08-23T00:53:29.233Z,15.40
2022-08-23T00:58:27.863Z,15.30
2022-08-23T01:00:56.777Z,15.30
2022-08-23T01:03:27.000Z,15.30
2022-08-23T01:08:52.525Z,15.40
2022-08-23T01:11:33.303Z,15.30
2022-08-23T01:14:11.869Z,15.30
2022-08-23T01:16:45.702Z,15.70
2022-08-23T01:19:31.898Z,15.20
2022-08-23T01:22:22.356Z,15.20
2022-08-23T01:25:07.057Z,15.20
2022-08-23T01:27:37.109Z,15.20
2022-08-23T01:32:38.620Z,15.10
2022-08-23T01:35:08.953Z,15.50
2022-08-23T01:37:36.450Z,15.00
2022-08-23T02:02:15.879Z,15.00
2022-08-23T02:04:43.129Z,15.00
2022-08-23T02:07:10.638Z,14.90
2022-08-23T02:09:38.076Z,14.90
2022-08-23T02:14:34.005Z,14.90
2022-08-23T02:17:04.368Z,14.90
2022-08-23T02:19:33.566Z,14.90
2022-08-23T02:22:01.312Z,14.90
2022-08-23T02:26:59.495Z,15.10
2022-08-23T02:29:30.126Z,15.00
2022-08-23T02:31:59.919Z,14.90
2022-08-23T02:34:28.064Z,14.90
2022-08-23T02:46:47.635Z,14.80
2022-08-23T02:49:15.855Z,14.80
2022-08-23T02:51:43.952Z,14.80
2022-08-23T02:56:39.305Z,14.90
2022-08-23T02:59:07.561Z,15.00
2022-08-23T03:01:39.291Z,14.90
2022-08-23T03:04:10.333Z,15.00
2022-08-23T03:06:38.493Z,15.70
2022-08-23T03:09:06.796Z,15.10
2022-08-23T03:14:02.367Z,14.90
2022-08-23T03:16:29.897Z,14.70
2022-08-23T03:18:57.393Z,14.80
2022-08-23T03:21:24.865Z,14.80
2022-08-23T03:28:47.780Z,14.50
2022-08-23T03:31:17.075Z,14.70
2022-08-23T03:33:44.917Z,14.70
2022-08-23T03:36:13.283Z,14.70
2022-08-23T03:38:41.183Z,14.80
2022-08-23T03:41:09.575Z,14.80
2022-08-23T03:43:37.941Z,14.90
2022-08-23T03:46:06.658Z,14.80
2022-08-23T03:48:34.269Z,14.90
2022-08-23T03:53:29.224Z,15.10
2022-08-23T03:55:57.207Z,15.20
2022-08-23T03:58:29.521Z,15.20
2022-08-23T04:00:57.744Z,15.50
2022-08-23T04:03:25.820Z,15.50
2022-08-23T04:05:53.253Z,15.70
2022-08-23T04:08:33.470Z,15.80
2022-08-23T04:11:01.493Z,16.00
2022-08-23T04:18:26.221Z,16.50
2022-08-23T04:20:54.043Z,16.70
2022-08-23T04:23:21.910Z,16.90
2022-08-23T04:25:49.513Z,17.10
2022-08-23T04:30:47.006Z,17.50
2022-08-23T04:33:17.902Z,17.70
2022-08-23T04:35:46.444Z,17.90
2022-08-23T04:38:24.280Z,18.20
2022-08-23T04:41:11.730Z,18.80
2022-08-23T04:43:39.958Z,18.80
2022-08-23T04:46:08.073Z,19.10
2022-08-23T04:51:03.916Z,19.80
2022-08-23T04:53:35.068Z,20.60
2022-08-23T04:56:04.292Z,20.70
2022-08-23T04:58:32.836Z,21.60
2022-08-23T05:01:02.126Z,21.30
2022-08-23T05:03:30.018Z,21.50
2022-08-23T05:08:26.497Z,21.90
2022-08-23T05:10:54.220Z,22.40
2022-08-23T05:13:22.281Z,22.90
2022-08-23T05:15:52.715Z,23.10
2022-08-23T05:18:20.380Z,23.30
2022-08-23T05:20:48.299Z,23.50
2022-08-23T05:23:15.728Z,23.70
2022-08-23T05:25:53.300Z,23.90
2022-08-23T05:28:33.442Z,24.20
2022-08-23T05:31:06.136Z,24.60
2022-08-23T05:33:39.177Z,25.30
2022-08-23T05:36:09.083Z,24.00
2022-08-23T05:38:36.725Z,24.90
2022-08-23T05:41:05.354Z,25.10
2022-08-23T05:43:35.385Z,25.20
2022-08-23T05:46:12.766Z,25.70
2022-08-23T05:48:42.883Z,26.20
2022-08-23T05:51:17.479Z,26.20
2022-08-23T05:53:46.111Z,26.90
2022-08-23T05:56:24.007Z,27.60
2022-08-23T05:58:57.770Z,28.20
2022-08-23T06:01:27.926Z,28.40
2022-08-23T06:06:23.198Z,27.90
2022-08-23T06:09:04.885Z,27.20
2022-08-23T06:11:32.895Z,26.70
2022-08-23T06:14:02.917Z,26.70
2022-08-23T06:16:40.021Z,27.00
2022-08-23T06:19:08.887Z,28.30
2022-08-23T06:21:37.162Z,28.20
2022-08-23T06:24:05.197Z,28.70
2022-08-23T06:26:35.646Z,29.30
2022-08-23T06:29:09.586Z,29.30
2022-08-23T06:31:47.797Z,29.70
2022-08-23T06:34:20.562Z,30.10
2022-08-23T06:36:56.662Z,30.20
2022-08-23T06:39:26.312Z,30.60
2022-08-23T06:41:57.489Z,30.60
2022-08-23T06:49:20.197Z,32.60
2022-08-23T06:51:52.276Z,33.20
2022-08-23T06:56:50.209Z,33.10
2022-08-23T06:59:19.907Z,32.90
2022-08-23T07:01:51.041Z,33.10
2022-08-23T07:04:24.509Z,34.40
2022-08-23T07:14:17.574Z,33.90
2022-08-23T07:19:17.190Z,33.70
2022-08-23T07:21:45.885Z,33.70
2022-08-23T07:24:18.164Z,33.80
2022-08-23T07:26:47.342Z,33.90
2022-08-23T07:29:15.938Z,34.10
2022-08-23T07:31:46.585Z,33.00
2022-08-23T07:34:15.596Z,33.50
2022-08-23T07:36:45.178Z,34.20
2022-08-23T07:39:14.074Z,34.80
2022-08-23T07:46:40.516Z,37.20
2022-08-23T07:49:09.411Z,37.30
2022-08-23T07:51:37.434Z,37.50
2022-08-23T07:54:07.264Z,37.20
2022-08-23T07:56:35.334Z,36.50
2022-08-23T07:59:04.110Z,34.90
2022-08-23T08:01:32.154Z,35.00
2022-08-23T08:06:35.133Z,35.90
2022-08-23T08:09:04.173Z,35.90
2022-08-23T08:11:35.249Z,35.00
2022-08-23T08:14:05.955Z,34.20
2022-08-23T08:16:36.704Z,35.20
2022-08-23T08:19:07.751Z,35.30
2022-08-23T08:24:09.095Z,35.80
2022-08-23T08:29:05.652Z,36.50
2022-08-23T08:31:34.695Z,36.50
2022-08-23T08:34:02.400Z,36.80
2022-08-23T08:36:38.434Z,37.20
2022-08-23T08:39:10.534Z,37.40
2022-08-23T08:42:04.073Z,37.40
2022-08-23T08:44:54.167Z,37.60
2022-08-23T08:52:42.859Z,37.10
2022-08-23T08:55:12.951Z,35.80
2022-08-23T08:57:44.987Z,35.60
2022-08-23T09:00:23.865Z,36.00
2022-08-23T09:02:52.120Z,36.70
2022-08-23T09:05:31.786Z,36.40
2022-08-23T09:08:35.686Z,35.20
2022-08-23T09:11:10.886Z,35.10
2022-08-23T09:14:07.164Z,34.30
2022-08-23T09:16:53.243Z,34.20
2022-08-23T09:19:23.805Z,35.30
2022-08-23T09:22:03.376Z,35.30
2022-08-23T09:24:31.424Z,35.20
2022-08-23T09:26:59.297Z,34.70
2022-08-23T09:29:33.245Z,34.70
2022-08-23T09:32:06.666Z,34.10
2022-08-23T09:34:36.777Z,34.50
2022-08-23T09:37:31.968Z,35.20
2022-08-23T09:40:18.901Z,36.00
2022-08-23T09:42:47.490Z,36.10
2022-08-23T09:45:35.621Z,35.70
2022-08-23T09:48:04.849Z,36.10
2022-08-23T09:50:36.636Z,36.50
2022-08-23T09:53:14.454Z,36.20
2022-08-23T09:55:43.659Z,35.30
2022-08-23T09:58:26.994Z,34.90
2022-08-23T10:01:23.001Z,35.60
2022-08-23T10:04:23.142Z,35.50
2022-08-23T10:06:51.222Z,34.70
2022-08-23T10:09:27.035Z,34.70
2022-08-23T10:11:55.714Z,34.70
2022-08-23T10:14:28.238Z,35.40
2022-08-23T10:17:36.100Z,36.70
2022-08-23T10:20:12.814Z,36.70
2022-08-23T10:23:09.901Z,36.50
2022-08-23T10:25:43.196Z,35.90
2022-08-23T10:29:00.102Z,37.20
2022-08-23T10:31:55.744Z,35.00
2022-08-23T10:34:40.232Z,36.90
2022-08-23T10:37:36.159Z,37.70
2022-08-23T10:40:28.932Z,37.30
2022-08-23T10:43:16.442Z,37.20
2022-08-23T10:45:47.461Z,37.30
2022-08-23T10:48:27.742Z,36.90
2022-08-23T10:51:03.871Z,37.70
2022-08-23T10:53:46.382Z,37.90
2022-08-23T10:56:20.982Z,38.10
2022-08-23T10:58:52.482Z,37.00
2022-08-23T11:01:26.469Z,36.40
2022-08-23T11:04:15.021Z,36.40
2022-08-23T11:06:47.399Z,36.80
2022-08-23T11:12:23.370Z,37.20
2022-08-23T11:14:59.562Z,36.70
2022-08-23T11:17:56.292Z,36.80
2022-08-23T11:20:52.020Z,36.60
2022-08-23T11:23:53.871Z,36.70
2022-08-23T11:26:27.278Z,36.20
2022-08-23T11:29:17.458Z,35.50
2022-08-23T11:32:23.665Z,35.50
2022-08-23T11:35:05.807Z,35.90
2022-08-23T11:37:57.266Z,35.40
2022-08-23T11:43:25.420Z,36.30
2022-08-23T11:45:53.895Z,36.30
2022-08-23T11:48:53.444Z,36.50
2022-08-23T11:51:29.842Z,36.90
2022-08-23T11:54:18.167Z,36.80
2022-08-23T11:57:08.931Z,37.10
2022-08-23T12:03:02.624Z,36.00
2022-08-23T12:05:38.735Z,37.50
2022-08-23T12:08:06.102Z,35.20
2022-08-23T12:10:42.537Z,34.30
2022-08-23T12:13:22.642Z,34.00
2022-08-23T12:16:29.096Z,33.80
2022-08-23T12:19:06.821Z,34.30
2022-08-23T12:24:24.443Z,34.40
2022-08-23T12:27:28.763Z,34.80
2022-08-23T12:30:21.645Z,34.50
2022-08-23T12:33:13.813Z,34.50
2022-08-23T12:35:53.327Z,34.20
2022-08-23T12:38:42.901Z,33.60
2022-08-23T12:41:32.401Z,32.80
2022-08-23T12:44:07.281Z,32.40
2022-08-23T12:46:38.544Z,32.20
2022-08-23T12:49:08.798Z,32.00
2022-08-23T12:51:48.617Z,32.30
2022-08-23T12:54:19.236Z,32.30
2022-08-23T12:56:49.489Z,32.60
2022-08-23T12:59:34.419Z,33.50
2022-08-23T13:02:08.494Z,33.50
2022-08-23T13:04:41.250Z,33.50
2022-08-23T13:07:13.213Z,33.30
2022-08-23T13:09:42.571Z,33.40
2022-08-23T13:12:21.424Z,33.40
2022-08-23T13:14:52.286Z,33.50
2022-08-23T13:17:25.481Z,33.50
2022-08-23T13:20:18.677Z,32.90
2022-08-23T13:23:02.265Z,32.80
2022-08-23T13:25:41.578Z,32.20
2022-08-23T13:28:41.783Z,32.20
2022-08-23T13:31:09.481Z,32.10
2022-08-23T13:33:37.299Z,32.00
2022-08-23T13:36:15.230Z,32.00
2022-08-23T13:38:44.400Z,31.70
2022-08-23T13:41:29.448Z,31.90
2022-08-23T13:46:29.545Z,32.00
2022-08-23T13:49:10.353Z,32.10
2022-08-23T13:52:12.023Z,31.80
2022-08-23T13:54:52.472Z,31.50
2022-08-23T13:57:22.356Z,31.40
2022-08-23T14:02:20.725Z,30.90
2022-08-23T14:04:48.548Z,30.80
2022-08-23T14:07:16.476Z,30.90
2022-08-23T14:09:44.349Z,31.00
2022-08-23T14:12:21.912Z,31.00
2022-08-23T14:14:50.382Z,30.80
2022-08-23T14:17:20.581Z,30.80
2022-08-23T14:20:32.778Z,30.70
2022-08-23T14:25:04.656Z,30.10
2022-08-23T14:27:32.367Z,30.00
2022-08-23T14:30:00.137Z,30.10
2022-08-23T14:32:27.637Z,30.10
2022-08-23T14:34:55.331Z,29.90
2022-08-23T14:40:10.967Z,29.90
2022-08-23T14:42:38.710Z,29.50
2022-08-23T14:45:07.157Z,29.70
2022-08-23T14:47:35.593Z,29.70
2022-08-23T14:50:05.548Z,29.70
2022-08-23T14:52:33.329Z,29.70
2022-08-23T14:55:00.794Z,30.70
2022-08-23T14:57:28.930Z,29.70
2022-08-23T14:59:56.798Z,29.70
2022-08-23T15:02:27.239Z,29.60
2022-08-23T15:04:55.128Z,29.80
2022-08-23T15:07:23.336Z,29.40
2022-08-23T15:09:54.562Z,29.40
2022-08-23T15:15:21.730Z,29.20
2022-08-23T15:17:58.179Z,28.70
2022-08-23T15:20:31.770Z,29.10
2022-08-23T15:23:00.427Z,29.20
2022-08-23T15:25:31.032Z,29.00
2022-08-23T15:27:58.670Z,29.00
2022-08-23T15:30:26.467Z,28.90
2022-08-23T15:35:27.036Z,28.80
2022-08-23T15:37:56.187Z,28.70
2022-08-23T15:40:25.702Z,28.70
2022-08-23T15:47:56.574Z,28.70
2022-08-23T15:50:27.377Z,28.50
2022-08-23T15:52:55.609Z,28.40
2022-08-23T15:55:23.579Z,28.30
2022-08-23T15:57:54.366Z,28.20
2022-08-23T16:00:24.378Z,27.60
2022-08-23T16:05:40.417Z,28.00
2022-08-23T16:08:08.977Z,27.80
2022-08-23T16:10:36.734Z,27.80
2022-08-23T16:13:04.397Z,27.60
2022-08-23T16:22:55.868Z,27.60
2022-08-23T16:25:23.576Z,27.40
2022-08-23T16:27:51.317Z,29.20
2022-08-23T16:30:19.079Z,27.20
2022-08-23T16:32:46.674Z,27.20
2022-08-23T16:35:15.029Z,27.00
2022-08-23T16:37:42.738Z,26.90
2022-08-23T16:40:11.332Z,26.90
2022-08-23T16:42:39.198Z,26.80
2022-08-23T16:45:07.487Z,26.60
2022-08-23T16:47:40.935Z,26.40
2022-08-23T16:55:07.988Z,26.30
2022-08-23T17:00:07.399Z,26.10
2022-08-23T17:02:37.672Z,26.10
2022-08-23T17:05:07.702Z,26.10
2022-08-23T17:07:35.788Z,26.00
2022-08-23T17:10:04.915Z,25.90
2022-08-23T17:12:33.236Z,25.80
2022-08-23T17:15:01.263Z,25.90
2022-08-23T17:17:30.493Z,25.80
2022-08-23T17:29:49.649Z,25.70
2022-08-23T17:32:22.417Z,25.50
2022-08-23T17:34:50.017Z,25.30
2022-08-23T17:37:20.514Z,25.20
2022-08-23T17:39:49.611Z,25.20
2022-08-23T17:44:45.927Z,24.90
2022-08-23T17:47:16.723Z,24.90
2022-08-23T17:49:46.238Z,24.80
2022-08-23T17:54:42.069Z,24.60
2022-08-23T17:57:12.204Z,24.50
2022-08-23T17:59:40.623Z,24.50
2022-08-23T18:09:32.049Z,24.30
2022-08-23T18:14:30.212Z,24.20
2022-08-23T18:16:58.223Z,24.10
2022-08-23T18:19:26.163Z,24.00
2022-08-23T18:24:21.809Z,24.00
2022-08-23T18:27:08.147Z,24.10
2022-08-23T18:29:37.415Z,23.90
2022-08-23T18:32:10.608Z,23.80
2022-08-23T18:34:40.070Z,23.80
2022-08-23T18:37:07.879Z,23.80
2022-08-23T18:42:05.562Z,23.60
2022-08-23T18:44:33.246Z,23.60
2022-08-23T18:47:02.810Z,23.50
2022-08-23T18:57:02.233Z,23.40
2022-08-23T19:19:17.143Z,22.80
2022-08-23T19:24:12.408Z,22.70
2022-08-23T19:59:19.687Z,21.80
2022-08-23T20:01:48.180Z,21.70
2022-08-23T20:29:03.195Z,21.20
2022-08-23T20:31:35.239Z,21.30
2022-08-23T20:41:36.331Z,21.20
2022-08-23T20:44:04.526Z,21.20
2022-08-23T20:46:32.489Z,21.10
2022-08-23T20:51:28.615Z,21.10
2022-08-23T20:56:25.212Z,21.00
2022-08-23T21:06:30.120Z,20.90
2022-08-23T21:11:28.384Z,20.90
2022-08-23T21:13:57.377Z,20.90
2022-08-23T21:16:25.436Z,20.80
2022-08-23T21:21:24.500Z,20.70
2022-08-23T21:23:52.493Z,20.60
2022-08-23T21:31:18.523Z,20.50
2022-08-23T21:36:15.130Z,20.40
2022-08-23T21:43:55.952Z,20.20
2022-08-23T21:46:23.982Z,20.10
2022-08-23T21:48:51.635Z,20.10
2022-08-23T21:51:19.590Z,20.10
2022-08-23T21:53:47.805Z,20.10
2022-08-23T21:58:44.193Z,20.00
2022-08-23T22:06:14.831Z,19.80
2022-08-23T22:13:39.498Z,19.80
2022-08-23T22:21:04.318Z,19.80
2022-08-23T22:26:01.156Z,19.70
2022-08-23T22:28:32.780Z,19.70
2022-08-23T22:31:06.668Z,19.60
2022-08-23T22:36:07.502Z,19.50
2022-08-23T22:46:00.824Z,19.20
2022-08-23T22:51:12.706Z,19.10
2022-08-23T22:53:44.539Z,19.10
2022-08-23T22:58:42.274Z,19.00
2022-08-23T23:03:42.082Z,18.90
2022-08-23T23:08:38.075Z,18.80
2022-08-23T23:13:35.808Z,18.70
2022-08-23T23:16:05.885Z,18.60
2022-08-23T23:21:04.183Z,18.40
2022-08-23T23:23:32.912Z,18.40
2022-08-23T23:31:00.725Z,18.20
2022-08-23T23:38:24.756Z,18.10
2022-08-23T23:40:52.135Z,18.00
2022-08-23T23:43:19.720Z,17.90
2022-08-23T23:45:47.267Z,18.00
2022-08-23T23:48:14.787Z,17.90
2022-08-23T23:50:45.598Z,17.90
2022-08-23T23:53:15.025Z,17.90
2022-08-23T23:55:44.039Z,17.80
